Pagrindinis puslapis
METAR-TAF:

METAR-TAF

Oro uostai :

Batam, Indonezija

platuma: 01-07-15N, ilguma: 104-07-07E, Aukštis: 38 m

Dabartinis oras

Ataskaita buvo paskelbta 19 minutes, ne 10:30 UTC
Vėjas 8 kt iš Šiaurės/Šiaurės Rytų
Temperatūra 27°C
Drėgmė 74%
Slėgis 1011 hPa
Matomumas 10 km arba daugiau
Išsisklaidę debesys ne aukštis 1400 ft

METAR: WIDD 171030Z 02008KT 9999 SCT014 27/22 Q1011 NOSIG

Laikas: 17:49 (10:49 UTC)

Prognozė

Ataskaita buvo paskelbta 5 valandos ir 49 minutes, ne 05:00 UTC
Prognozė galioja nuo 17 metu 06 UTC su 18 metu 06 UTC
Vėjas 12 kt iš Šiaurės/Šiaurės Rytų
Matomumas 10 km arba daugiau
Išsisklaidę debesys ne aukštis 1400 ft

TAF: WIDD 170500Z 1706/1806 03012KT 9999 SCT014

Orai ataskaitas ir orų prognozės (METAR, TAF).

turimą stotys yra geltonos ir raudonos taškus žemėlapyje.

Perkelti pele per norėdami pamatyti stoties vardą.

Tada spustelėkite, norėdami matyti oro stebėjimo ir prognozės.

Norėdami pakeisti žemėlapį: spustelėkite ant žalios mygtukų su juodo kryžiaus žemyn,; žalią mygtuką su brūkšneliu, jei norite nutolinti; arba žalių rodyklių gretimoms žemėlapius.


METAR-TAF: